createdAt,value
2018-07-31T00:00:28.048Z,25.00
2018-07-31T00:02:55.432Z,24.90
2018-07-31T00:05:22.767Z,24.90
2018-07-31T00:07:50.723Z,24.90
2018-07-31T00:10:18.261Z,24.80
2018-07-31T00:12:45.576Z,24.70
2018-07-31T00:15:13.021Z,24.70
2018-07-31T00:17:40.425Z,24.70
2018-07-31T00:20:08.063Z,24.60
2018-07-31T00:22:35.341Z,24.60
2018-07-31T00:25:02.608Z,24.60
2018-07-31T00:27:29.913Z,24.60
2018-07-31T00:32:24.861Z,24.50
2018-07-31T00:34:52.437Z,24.50
2018-07-31T00:37:19.953Z,24.40
2018-07-31T00:39:47.346Z,24.30
2018-07-31T00:42:15.309Z,24.40
2018-07-31T00:44:42.584Z,24.30
2018-07-31T00:47:10.113Z,24.30
2018-07-31T00:49:37.537Z,24.20
2018-07-31T00:52:04.961Z,24.30
2018-07-31T00:54:34.293Z,24.30
2018-07-31T00:57:02.067Z,24.20
2018-07-31T00:59:29.413Z,24.00
2018-07-31T01:01:57.367Z,24.20
2018-07-31T01:04:24.699Z,24.10
2018-07-31T01:06:52.258Z,24.20
2018-07-31T01:09:19.749Z,24.10
2018-07-31T01:11:47.097Z,24.00
2018-07-31T01:14:14.437Z,24.00
2018-07-31T01:16:42.540Z,24.10
2018-07-31T01:19:10.767Z,24.00
2018-07-31T01:21:38.973Z,24.00
2018-07-31T01:24:07.491Z,24.00
2018-07-31T01:26:35.093Z,24.00
2018-07-31T01:29:02.471Z,23.90
2018-07-31T01:33:57.588Z,23.90
2018-07-31T01:36:24.921Z,23.80
2018-07-31T01:38:52.260Z,23.80
2018-07-31T01:41:19.557Z,23.80
2018-07-31T01:43:46.851Z,23.80
2018-07-31T01:46:14.204Z,23.80
2018-07-31T01:48:41.577Z,23.80
2018-07-31T01:51:08.907Z,23.80
2018-07-31T01:53:36.333Z,23.70
2018-07-31T01:56:03.671Z,23.60
2018-07-31T01:58:30.954Z,23.60
2018-07-31T02:00:58.246Z,23.50
2018-07-31T02:03:25.537Z,23.50
2018-07-31T02:05:53.670Z,23.70
2018-07-31T02:08:21.080Z,23.50
2018-07-31T02:10:50.030Z,23.50
2018-07-31T02:13:17.724Z,23.50
2018-07-31T02:15:45.589Z,23.70
2018-07-31T02:18:13.577Z,23.50
2018-07-31T02:20:41.154Z,23.50
2018-07-31T02:23:09.687Z,23.40
2018-07-31T02:25:38.315Z,23.40
2018-07-31T02:28:05.679Z,23.30
2018-07-31T02:30:32.951Z,23.40
2018-07-31T02:33:00.242Z,23.40
2018-07-31T02:35:27.513Z,23.40
2018-07-31T02:37:54.905Z,23.40
2018-07-31T02:40:22.214Z,23.30
2018-07-31T02:42:51.241Z,23.30
2018-07-31T02:45:18.547Z,23.30
2018-07-31T02:47:48.849Z,23.30
2018-07-31T02:50:17.173Z,23.30
2018-07-31T02:52:44.905Z,23.40
2018-07-31T02:57:40.459Z,23.30
2018-07-31T03:00:08.898Z,23.30
2018-07-31T03:02:37.154Z,23.30
2018-07-31T03:05:05.965Z,23.30
2018-07-31T03:07:36.703Z,23.30
2018-07-31T03:10:05.171Z,23.20
2018-07-31T03:12:32.468Z,23.20
2018-07-31T03:14:59.763Z,23.60
2018-07-31T03:17:28.306Z,23.20
2018-07-31T03:19:55.762Z,23.00
2018-07-31T03:22:23.485Z,23.10
2018-07-31T03:24:50.918Z,23.10
2018-07-31T03:27:18.581Z,23.10
2018-07-31T03:29:46.045Z,23.10
2018-07-31T03:32:13.585Z,23.30
2018-07-31T03:34:42.550Z,23.00
2018-07-31T03:37:10.455Z,22.90
2018-07-31T03:39:38.476Z,22.90
2018-07-31T03:42:06.363Z,22.80
2018-07-31T03:44:33.806Z,22.80
2018-07-31T03:47:01.338Z,22.80
2018-07-31T03:49:28.882Z,22.70
2018-07-31T03:51:57.173Z,22.80
2018-07-31T03:54:24.717Z,22.80
2018-07-31T03:56:55.383Z,22.80
2018-07-31T03:59:23.045Z,22.70
2018-07-31T04:01:51.439Z,22.80
2018-07-31T04:04:19.045Z,22.80
2018-07-31T04:06:49.322Z,22.70
2018-07-31T04:09:16.976Z,22.70
2018-07-31T04:11:44.535Z,22.70
2018-07-31T04:14:11.986Z,22.70
2018-07-31T04:16:39.986Z,22.70
2018-07-31T04:19:08.757Z,22.70
2018-07-31T04:21:36.305Z,22.60
2018-07-31T04:24:03.833Z,22.70
2018-07-31T04:26:32.678Z,22.70
2018-07-31T04:29:01.070Z,22.70
2018-07-31T04:31:28.832Z,22.70
2018-07-31T04:33:56.353Z,22.70
2018-07-31T04:36:24.918Z,22.70
2018-07-31T04:38:52.514Z,22.70
2018-07-31T04:41:20.148Z,22.70
2018-07-31T04:43:47.763Z,22.70
2018-07-31T04:46:15.241Z,22.70
2018-07-31T04:48:42.730Z,22.70
2018-07-31T04:51:11.254Z,22.90
2018-07-31T04:53:40.845Z,22.70
2018-07-31T04:56:08.577Z,22.80
2018-07-31T04:58:37.026Z,22.80
2018-07-31T05:01:04.643Z,22.80
2018-07-31T05:03:32.187Z,22.90
2018-07-31T05:05:59.773Z,22.90
2018-07-31T05:08:27.267Z,23.00
2018-07-31T05:10:54.738Z,23.10
2018-07-31T05:13:26.707Z,23.10
2018-07-31T05:15:55.203Z,23.40
2018-07-31T05:18:22.800Z,23.00
2018-07-31T05:20:50.307Z,23.20
2018-07-31T05:23:18.399Z,23.30
2018-07-31T05:25:45.900Z,23.30
2018-07-31T05:28:13.714Z,23.30
2018-07-31T05:30:41.462Z,23.30
2018-07-31T05:33:10.145Z,23.30
2018-07-31T05:35:37.674Z,23.20
2018-07-31T05:38:07.008Z,23.50
2018-07-31T05:40:36.100Z,23.00
2018-07-31T05:43:04.009Z,23.60
2018-07-31T05:45:31.546Z,23.60
2018-07-31T05:47:59.095Z,23.60
2018-07-31T05:50:26.642Z,23.70
2018-07-31T05:55:21.885Z,23.90
2018-07-31T05:57:50.452Z,24.00
2018-07-31T06:00:18.047Z,24.10
2018-07-31T06:02:45.784Z,24.10
2018-07-31T06:05:13.442Z,24.20
2018-07-31T06:07:41.369Z,24.30
2018-07-31T06:10:08.960Z,24.30
2018-07-31T06:12:36.497Z,24.40
2018-07-31T06:15:05.157Z,24.60
2018-07-31T06:17:32.603Z,24.70
2018-07-31T06:20:00.722Z,24.80
2018-07-31T06:22:28.202Z,24.80
2018-07-31T06:24:56.227Z,25.00
2018-07-31T06:27:23.842Z,25.10
2018-07-31T06:29:51.469Z,25.20
2018-07-31T06:32:19.246Z,25.40
2018-07-31T06:34:46.746Z,25.20
2018-07-31T06:37:14.923Z,25.10
2018-07-31T06:39:44.015Z,25.10
2018-07-31T06:42:11.511Z,25.10
2018-07-31T06:44:39.693Z,25.40
2018-07-31T06:49:34.705Z,25.80
2018-07-31T06:52:04.105Z,26.20
2018-07-31T06:54:31.671Z,26.60
2018-07-31T06:59:32.152Z,27.00
2018-07-31T07:02:00.452Z,27.30
2018-07-31T07:04:31.475Z,27.30
2018-07-31T07:06:59.025Z,27.30
2018-07-31T07:09:27.058Z,27.40
2018-07-31T07:11:55.144Z,27.40
2018-07-31T07:14:22.756Z,27.70
2018-07-31T07:16:50.812Z,27.70
2018-07-31T07:19:18.334Z,27.50
2018-07-31T07:21:45.878Z,27.80
2018-07-31T07:24:14.051Z,28.00
2018-07-31T07:26:42.135Z,28.10
2018-07-31T07:29:09.680Z,28.20
2018-07-31T07:31:37.134Z,28.20
2018-07-31T07:34:05.157Z,28.30
2018-07-31T07:36:32.698Z,28.40
2018-07-31T07:39:02.643Z,28.50
2018-07-31T07:41:31.075Z,28.70
2018-07-31T07:43:58.549Z,29.10
2018-07-31T07:46:25.969Z,29.60
2018-07-31T07:48:53.900Z,30.70
2018-07-31T07:51:21.392Z,32.40
2018-07-31T07:53:50.104Z,33.60
2018-07-31T07:56:17.698Z,34.90
2018-07-31T07:58:45.195Z,37.10
2018-07-31T08:01:12.745Z,38.40
2018-07-31T08:03:40.385Z,39.10
2018-07-31T08:06:07.809Z,38.90
2018-07-31T08:08:35.286Z,38.80
2018-07-31T08:11:02.766Z,39.10
2018-07-31T08:13:35.321Z,39.50
2018-07-31T08:16:02.638Z,40.30
2018-07-31T08:18:29.954Z,41.50
2018-07-31T08:23:29.636Z,43.70
2018-07-31T08:25:56.898Z,43.70
2018-07-31T08:28:24.353Z,44.00
2018-07-31T08:30:51.755Z,43.60
2018-07-31T08:33:40.886Z,43.20
2018-07-31T08:36:17.909Z,43.10
2018-07-31T08:38:45.264Z,42.30
2018-07-31T08:41:12.571Z,41.10
2018-07-31T08:43:40.154Z,39.50
2018-07-31T08:46:07.579Z,38.20
2018-07-31T08:48:39.085Z,36.90
2018-07-31T08:51:20.431Z,35.80
2018-07-31T08:53:48.283Z,34.90
2018-07-31T08:56:19.429Z,33.90
2018-07-31T08:58:46.737Z,33.60
2018-07-31T09:01:14.053Z,33.40
2018-07-31T09:03:41.334Z,33.20
2018-07-31T09:06:09.679Z,32.90
2018-07-31T09:08:42.517Z,32.70
2018-07-31T09:11:09.970Z,32.20
2018-07-31T09:13:38.342Z,32.10
2018-07-31T09:16:06.049Z,32.00
2018-07-31T09:18:33.669Z,31.90
2018-07-31T09:21:06.193Z,31.80
2018-07-31T09:23:34.643Z,31.90
2018-07-31T09:26:02.277Z,31.80
2018-07-31T09:28:29.732Z,31.90
2018-07-31T09:31:03.016Z,31.80
2018-07-31T09:33:30.430Z,31.80
2018-07-31T09:35:58.098Z,31.80
2018-07-31T09:38:26.106Z,31.70
2018-07-31T09:40:53.578Z,31.60
2018-07-31T09:43:27.957Z,31.50
2018-07-31T09:45:55.401Z,31.50
2018-07-31T09:50:53.248Z,31.50
2018-07-31T09:53:20.870Z,31.60
2018-07-31T09:58:15.894Z,31.80
2018-07-31T10:00:49.094Z,31.70
2018-07-31T10:03:17.801Z,31.90
2018-07-31T10:05:45.286Z,31.90
2018-07-31T10:08:17.361Z,31.90
2018-07-31T10:10:44.814Z,32.00
2018-07-31T10:13:12.933Z,32.10
2018-07-31T10:15:41.125Z,32.10
2018-07-31T10:18:08.662Z,32.30
2018-07-31T10:20:36.137Z,32.20
2018-07-31T10:23:03.637Z,32.20
2018-07-31T10:25:31.145Z,32.20
2018-07-31T10:27:58.640Z,32.20
2018-07-31T10:30:26.269Z,32.30
2018-07-31T10:32:53.790Z,32.40
2018-07-31T10:35:21.256Z,32.40
2018-07-31T10:37:48.816Z,32.50
2018-07-31T10:40:17.530Z,32.60
2018-07-31T10:42:45.080Z,32.60
2018-07-31T10:45:12.581Z,32.70
2018-07-31T10:47:40.353Z,32.70
2018-07-31T10:50:07.884Z,32.60
2018-07-31T10:52:35.372Z,32.70
2018-07-31T10:55:02.961Z,32.80
2018-07-31T10:57:30.958Z,32.70
2018-07-31T10:59:58.524Z,32.80
2018-07-31T11:02:25.931Z,32.80
2018-07-31T11:04:53.422Z,32.70
2018-07-31T11:07:26.544Z,32.30
2018-07-31T11:09:54.069Z,32.40
2018-07-31T11:12:21.661Z,32.40
2018-07-31T11:14:49.240Z,32.40
2018-07-31T11:17:16.847Z,32.40
2018-07-31T11:19:44.369Z,32.40
2018-07-31T11:22:12.175Z,32.60
2018-07-31T11:24:41.530Z,32.80
2018-07-31T11:27:09.730Z,32.70
2018-07-31T11:29:37.345Z,32.80
2018-07-31T11:32:04.818Z,32.80
2018-07-31T11:34:34.896Z,32.80
2018-07-31T11:37:02.477Z,32.60
2018-07-31T11:39:29.934Z,32.80
2018-07-31T11:41:57.392Z,32.80
2018-07-31T11:44:24.855Z,32.70
2018-07-31T11:46:52.391Z,32.50
2018-07-31T11:49:19.914Z,32.90
2018-07-31T11:51:47.397Z,32.90
2018-07-31T11:54:20.207Z,32.90
2018-07-31T11:56:51.568Z,32.90
2018-07-31T11:59:19.172Z,32.90
2018-07-31T12:01:46.848Z,33.00
2018-07-31T12:04:14.591Z,32.90
2018-07-31T12:06:42.441Z,33.00
2018-07-31T12:09:11.632Z,33.00
2018-07-31T12:11:40.939Z,33.00
2018-07-31T12:14:08.803Z,32.90
2018-07-31T12:16:36.458Z,32.70
2018-07-31T12:19:04.419Z,32.70
2018-07-31T12:21:31.953Z,32.70
2018-07-31T12:23:59.769Z,32.70
2018-07-31T12:26:27.648Z,32.80
2018-07-31T12:28:55.173Z,32.70
2018-07-31T12:31:22.659Z,32.60
2018-07-31T12:33:50.483Z,32.60
2018-07-31T12:36:21.271Z,32.60
2018-07-31T12:38:49.540Z,32.90
2018-07-31T12:41:17.134Z,32.90
2018-07-31T12:43:44.656Z,32.70
2018-07-31T12:46:22.194Z,33.00
2018-07-31T12:48:51.903Z,33.10
2018-07-31T12:53:46.745Z,33.10
2018-07-31T12:56:14.137Z,33.10
2018-07-31T12:58:41.482Z,33.10
2018-07-31T13:01:08.903Z,33.20
2018-07-31T13:03:36.181Z,33.20
2018-07-31T13:06:03.579Z,33.20
2018-07-31T13:08:30.844Z,33.10
2018-07-31T13:10:58.838Z,33.10
2018-07-31T13:13:26.143Z,33.10
2018-07-31T13:15:53.619Z,33.10
2018-07-31T13:20:48.684Z,33.20
2018-07-31T13:23:15.979Z,33.10
2018-07-31T13:25:43.450Z,33.00
2018-07-31T13:28:10.806Z,33.10
2018-07-31T13:30:38.268Z,33.10
2018-07-31T13:33:05.859Z,33.30
2018-07-31T13:35:33.962Z,33.30
2018-07-31T13:38:01.441Z,33.30
2018-07-31T13:40:28.753Z,33.20
2018-07-31T13:42:57.434Z,33.10
2018-07-31T13:45:25.012Z,33.20
2018-07-31T13:47:52.355Z,33.10
2018-07-31T13:50:19.700Z,33.00
2018-07-31T13:53:08.884Z,32.90
2018-07-31T13:55:36.379Z,32.80
2018-07-31T13:58:08.051Z,32.70
2018-07-31T14:00:35.433Z,32.70
2018-07-31T14:03:03.403Z,32.80
2018-07-31T14:05:30.826Z,32.70
2018-07-31T14:07:58.695Z,32.80
2018-07-31T14:10:30.733Z,32.80
2018-07-31T14:12:58.476Z,32.80
2018-07-31T14:15:25.835Z,32.80
2018-07-31T14:17:53.164Z,32.90
2018-07-31T14:20:20.498Z,33.00
2018-07-31T14:22:47.779Z,33.00
2018-07-31T14:25:15.289Z,32.90
2018-07-31T14:27:43.066Z,32.90
2018-07-31T14:30:10.538Z,32.80
2018-07-31T14:32:37.946Z,32.80
2018-07-31T14:35:05.342Z,32.90
2018-07-31T14:37:32.639Z,32.90
2018-07-31T14:39:59.931Z,32.90
2018-07-31T14:42:27.224Z,32.80
2018-07-31T14:44:54.549Z,32.70
2018-07-31T14:47:23.186Z,32.70
2018-07-31T14:49:50.901Z,32.70
2018-07-31T14:52:18.261Z,32.80
2018-07-31T14:54:45.589Z,32.70
2018-07-31T14:57:12.945Z,32.80
2018-07-31T14:59:40.234Z,32.80
2018-07-31T15:02:07.598Z,32.80
2018-07-31T15:04:35.070Z,32.80
2018-07-31T15:07:02.698Z,32.70
2018-07-31T15:09:30.105Z,32.60
2018-07-31T15:11:57.447Z,32.60
2018-07-31T15:14:24.826Z,32.60
2018-07-31T15:16:52.854Z,32.50
2018-07-31T15:19:20.531Z,32.40
2018-07-31T15:21:47.974Z,32.30
2018-07-31T15:24:15.271Z,32.30
2018-07-31T15:26:42.597Z,32.40
2018-07-31T15:29:10.101Z,32.20
2018-07-31T15:31:37.552Z,32.30
2018-07-31T15:34:04.881Z,32.20
2018-07-31T15:36:32.229Z,32.20
2018-07-31T15:38:59.571Z,32.10
2018-07-31T15:41:30.962Z,32.10
2018-07-31T15:43:58.289Z,32.10
2018-07-31T15:46:25.596Z,32.20
2018-07-31T15:48:53.700Z,32.40
2018-07-31T15:53:48.422Z,32.40
2018-07-31T15:56:15.765Z,32.40
2018-07-31T15:58:43.025Z,32.30
2018-07-31T16:01:10.560Z,32.40
2018-07-31T16:03:38.971Z,32.30
2018-07-31T16:06:06.377Z,32.20
2018-07-31T16:11:01.349Z,32.00
2018-07-31T16:13:28.707Z,31.90
2018-07-31T16:15:56.056Z,31.60
2018-07-31T16:18:23.690Z,31.70
2018-07-31T16:20:51.284Z,31.70
2018-07-31T16:23:18.663Z,31.50
2018-07-31T16:25:45.963Z,31.80
2018-07-31T16:28:13.709Z,31.70
2018-07-31T16:30:41.291Z,31.70
2018-07-31T16:33:08.653Z,31.80
2018-07-31T16:35:35.983Z,31.80
2018-07-31T16:38:03.289Z,31.70
2018-07-31T16:40:30.557Z,31.90
2018-07-31T16:42:57.914Z,31.60
2018-07-31T16:45:25.341Z,31.60
2018-07-31T16:47:52.772Z,31.60
2018-07-31T16:50:20.193Z,31.50
2018-07-31T16:52:47.792Z,31.60
2018-07-31T16:55:15.376Z,31.50
2018-07-31T16:57:42.625Z,31.50
2018-07-31T17:02:37.261Z,31.30
2018-07-31T17:05:04.567Z,31.20
2018-07-31T17:07:32.363Z,31.10
2018-07-31T17:09:59.678Z,31.10
2018-07-31T17:12:27.164Z,31.10
2018-07-31T17:14:54.488Z,31.10
2018-07-31T17:17:21.845Z,31.10
2018-07-31T17:19:49.197Z,31.20
2018-07-31T17:22:16.550Z,31.00
2018-07-31T17:24:43.900Z,31.10
2018-07-31T17:27:11.182Z,30.90
2018-07-31T17:29:38.569Z,31.00
2018-07-31T17:32:05.846Z,31.00
2018-07-31T17:34:33.216Z,30.80
2018-07-31T17:37:00.541Z,30.80
2018-07-31T17:39:27.801Z,30.70
2018-07-31T17:41:55.125Z,30.60
2018-07-31T17:44:22.568Z,30.50
2018-07-31T17:46:49.854Z,30.50
2018-07-31T17:49:17.146Z,30.50
2018-07-31T17:51:44.473Z,30.40
2018-07-31T17:54:11.905Z,30.30
2018-07-31T17:56:39.177Z,30.30
2018-07-31T17:59:06.569Z,30.20
2018-07-31T18:01:33.999Z,30.10
2018-07-31T18:04:01.396Z,30.10
2018-07-31T18:06:28.726Z,30.00
2018-07-31T18:08:56.306Z,29.90
2018-07-31T18:11:23.655Z,30.00
2018-07-31T18:13:51.167Z,30.00
2018-07-31T18:16:18.695Z,29.90
2018-07-31T18:18:45.978Z,29.90
2018-07-31T18:21:13.597Z,29.70
2018-07-31T18:23:41.005Z,29.60
2018-07-31T18:26:08.230Z,29.50
2018-07-31T18:28:35.466Z,29.40
2018-07-31T18:31:02.785Z,29.40
2018-07-31T18:33:30.077Z,29.40
2018-07-31T18:35:57.362Z,29.30
2018-07-31T18:38:24.666Z,29.20
2018-07-31T18:40:52.062Z,29.10
2018-07-31T18:43:19.452Z,29.00
2018-07-31T18:45:47.461Z,28.90
2018-07-31T18:48:19.378Z,28.90
2018-07-31T18:50:47.618Z,28.80
2018-07-31T18:53:15.073Z,28.80
2018-07-31T18:55:42.843Z,28.80
2018-07-31T18:58:10.275Z,28.70
2018-07-31T19:00:37.982Z,28.70
2018-07-31T19:03:06.022Z,28.70
2018-07-31T19:05:35.549Z,28.50
2018-07-31T19:08:02.970Z,28.60
2018-07-31T19:10:30.244Z,28.40
2018-07-31T19:12:57.590Z,28.30
2018-07-31T19:15:24.853Z,28.10
2018-07-31T19:20:23.485Z,28.00
2018-07-31T19:22:51.393Z,27.90
2018-07-31T19:27:46.053Z,27.90
2018-07-31T19:30:13.313Z,27.90
2018-07-31T19:32:40.777Z,27.90
2018-07-31T19:35:12.566Z,27.80
2018-07-31T19:37:40.341Z,27.80
2018-07-31T19:40:07.898Z,27.80
2018-07-31T19:42:36.195Z,27.80
2018-07-31T19:45:04.022Z,27.60
2018-07-31T19:47:37.214Z,27.70
2018-07-31T19:50:04.802Z,27.60
2018-07-31T19:52:32.255Z,27.60
2018-07-31T19:54:59.819Z,27.60
2018-07-31T19:57:27.385Z,27.50
2018-07-31T19:59:58.901Z,27.50
2018-07-31T20:02:26.509Z,27.40
2018-07-31T20:04:57.624Z,27.30
2018-07-31T20:07:25.214Z,27.20
2018-07-31T20:09:52.814Z,27.30
2018-07-31T20:12:21.175Z,27.30
2018-07-31T20:14:50.809Z,27.20
2018-07-31T20:17:18.344Z,27.20
2018-07-31T20:22:15.244Z,27.10
2018-07-31T20:24:42.741Z,27.00
2018-07-31T20:27:10.593Z,26.80
2018-07-31T20:29:38.248Z,27.00
2018-07-31T20:32:06.228Z,26.90
2018-07-31T20:34:42.461Z,26.90
2018-07-31T20:37:10.682Z,26.80
2018-07-31T20:39:38.932Z,26.80
2018-07-31T20:42:06.776Z,26.70
2018-07-31T20:44:34.305Z,26.90
2018-07-31T20:47:02.031Z,26.60
2018-07-31T20:49:29.432Z,26.60
2018-07-31T20:51:56.946Z,26.60
2018-07-31T20:54:24.718Z,26.50
2018-07-31T20:56:52.354Z,26.50
2018-07-31T20:59:19.820Z,26.40
2018-07-31T21:01:48.115Z,26.40
2018-07-31T21:04:15.699Z,26.40
2018-07-31T21:06:43.263Z,26.40
2018-07-31T21:09:16.447Z,26.30
2018-07-31T21:11:45.741Z,26.30
2018-07-31T21:14:14.594Z,26.30
2018-07-31T21:16:43.324Z,26.20
2018-07-31T21:19:12.032Z,26.20
2018-07-31T21:21:40.137Z,26.10
2018-07-31T21:24:07.717Z,26.10
2018-07-31T21:26:35.290Z,26.10
2018-07-31T21:29:02.865Z,26.10
2018-07-31T21:31:30.469Z,25.90
2018-07-31T21:33:59.903Z,26.10
2018-07-31T21:36:27.421Z,25.90
2018-07-31T21:38:55.009Z,25.90
2018-07-31T21:41:22.551Z,25.80
2018-07-31T21:43:50.380Z,25.80
2018-07-31T21:46:18.086Z,25.70
2018-07-31T21:48:45.542Z,25.70
2018-07-31T21:51:13.514Z,25.70
2018-07-31T21:53:41.199Z,25.60
2018-07-31T21:56:08.656Z,25.60
2018-07-31T21:58:36.210Z,25.70
2018-07-31T22:01:05.649Z,25.50
2018-07-31T22:03:33.765Z,25.50
2018-07-31T22:06:01.995Z,25.40
2018-07-31T22:08:29.619Z,25.40
2018-07-31T22:10:57.108Z,25.40
2018-07-31T22:13:24.620Z,25.30
2018-07-31T22:15:54.661Z,25.20
2018-07-31T22:18:22.159Z,25.20
2018-07-31T22:20:51.401Z,25.10
2018-07-31T22:23:18.942Z,25.10
2018-07-31T22:25:46.631Z,25.10
2018-07-31T22:28:14.286Z,25.00
2018-07-31T22:30:43.178Z,25.00
2018-07-31T22:33:11.312Z,25.00
2018-07-31T22:35:38.831Z,24.90
2018-07-31T22:38:06.369Z,25.00
2018-07-31T22:40:35.772Z,24.90
2018-07-31T22:43:03.388Z,24.70
2018-07-31T22:45:31.977Z,24.70
2018-07-31T22:47:59.570Z,24.80
2018-07-31T22:50:32.388Z,24.60
2018-07-31T22:52:59.817Z,24.60
2018-07-31T22:55:28.255Z,24.60
2018-07-31T22:57:55.639Z,24.60
2018-07-31T23:00:22.914Z,24.50
2018-07-31T23:05:19.067Z,24.40
2018-07-31T23:07:46.375Z,24.40
2018-07-31T23:10:13.694Z,24.40
2018-07-31T23:12:41.031Z,24.30
2018-07-31T23:15:08.517Z,24.00
2018-07-31T23:17:36.266Z,24.10
2018-07-31T23:20:04.325Z,24.10
2018-07-31T23:22:48.776Z,24.10
2018-07-31T23:25:16.054Z,24.00
2018-07-31T23:27:44.554Z,23.90
2018-07-31T23:30:12.049Z,24.20
2018-07-31T23:32:40.838Z,23.90
2018-07-31T23:35:08.146Z,23.70
2018-07-31T23:37:35.402Z,23.80
2018-07-31T23:42:31.265Z,23.70
2018-07-31T23:44:58.558Z,23.70
2018-07-31T23:47:26.881Z,23.70
2018-07-31T23:49:54.294Z,23.70
2018-07-31T23:52:21.553Z,23.60
2018-07-31T23:54:48.845Z,23.60
2018-07-31T23:57:17.004Z,23.60
2018-07-31T23:59:44.294Z,23.50
